16:37
Airports
History
Links
Donate
Help keep this website running!
PayPal
Bitcoin
This page is community maintained. The information is intended for PC simulator navigation or reference.
Always use approved charts for navigation.
DN57
KATSINA
KATSINA (DN57)
Katsina, Katsina, Nigeria
(C)
Lat/Lng:13° 0' 26.66" N / 7° 39' 28.05" E
13.007405 / 7.657792
Elevation:1660'ft / 506mMSL
ID / ICAO:DN57
Runways:1
Longest:04-22
Asphalt 3,042m / 9,979ft
Controlled:Yes
Nearby Weather16:00 GMT 2017-09-23
Nearby weather at DRRM, MARADI located 49.5 nautical miles from DN57
Altimeter: 29.88
Visibility: 6.2 statute miles
Wind: 4 knots (from 300°)
Temp: 35°c / 95°f
Humidity: 47.0%

METAR: DRRM 231600Z 30004KT 9999 FEW015 35/22 Q1012

(Powered by phpweather)
Airport Radio Frequencies
Tower: 125, 130
Nearby VORs <50NM
Nearby NDBs
Runway 04 / 22
Dimensions:3041.7 x 29.9m 9979' x 98'ft
Surface:Asphalt
Edge Lights:Medium intensity
Runway 04 [A]Runway 22 [B]
Heading:036°TH 216°TH
Lat:
Lng:
12° 59' 47.06"N
7° 38' 58.05"E
13° 1' 6.25"N
7° 39' 58.05"E
User Notes and Comments
13° 0' 26.66" N / 7° 39' 28.05" E
Distance To
Airport ID:
Nearby Airports
(U) MARADI 49.5 NM
DRRM ( WX ) NW 313°
4 GUSAU 86.8 NM
DNGU SW 228°
(C) MALLAM AMINU INTL 88.3 NM
DNKN ( WX ) SE 138°
(C) ZINDER 103.8 NM
DRZR ( WX ) ENE 59°
(C) ZARIA 129.7 NM
DNZA ( WX ) S 179°
(U) KADUNA 161.3 NM
DNKA ( WX ) S 188°
(C) SADIQ ABUBAKAR III INTL 165.1 NM
DNSO W 267°
VFR Chart
Flight Planning at SkyVector.com